• Join FlightAware (Why Join?)
  • Login
  • US Flag 
04:02AM EDT


 

Airport Tracker/Info


-or-


 

Live Flight TrackerFlight Track Log ✈ RPA3392 ✈ 23-Jun-2013 ✈ KMSP - KDCA

Flight Track Log - Related Links

Times and Time Zones

All times are in EDT time to prevent confusion due to time zone crossing. See the RPA3392 flight status page for this flight to view local times or setup timezone preferences in your user account.

Time Position Orientation Groundspeed Altitude Reporting Facility
EDT Latitude Longitude Course Direction KTS MPH feet Rate Location/Type
06:04PM 44.9000 -93.2333 117° Southeast 165 190 1,900  Level Minneapolis TRACON
06:05PM 44.9439 -93.2408 353° North 196 226 3,000 1,680 Climbing Minneapolis Center
06:06PM 44.7616 -92.7829 111° Southeast  Level Estimated
06:06PM 45.0119 -93.2325 North 243 280 5,400  Level Minneapolis Center
06:07PM 44.7211 -92.6370 113° Southeast  Level Estimated
06:07PM 45.0556 -93.1406 56° Northeast 300 345 8,000  Level Minneapolis Center
06:08PM 44.6604 -92.5058 123° Southeast  Level FlightAware Approximate
06:08PM 45.0675 -92.9917 83° East 329 379 10,600  Level Minneapolis Center
06:09PM 44.6075 -92.3580 117° Southeast  Level FlightAware Approximate
06:09PM 45.0067 -92.8883 130° Southeast 341 392 13,000  Level Minneapolis Center
06:10PM 44.9406 -92.7864 132° Southeast 349 402 14,900 1,920 Climbing Minneapolis Center
06:11PM 44.8689 -92.6778 133° Southeast 374 430 17,000 1,980 Climbing Minneapolis Center
06:12PM 44.7961 -92.5692 133° Southeast 379 436 19,100 1,920 Climbing Minneapolis Center
06:13PM 44.7219 -92.4564 133° Southeast 388 447 21,000 1,680 Climbing Minneapolis Center
06:14PM 44.6453 -92.3433 134° Southeast 396 456 22,600 1,800 Climbing Minneapolis Center
06:15PM 44.5508 -92.1997 133° Southeast 412 474 24,800 1,800 Climbing Minneapolis Center
06:16PM 44.4828 -92.0678 126° Southeast 417 480 26,400 1,380 Climbing Minneapolis Center
06:17PM 44.4136 -91.9361 126° Southeast 419 482 27,700 1,080 Climbing Minneapolis Center
06:18PM 44.3469 -91.7956 124° Southeast 429 494 28,700 1,080 Climbing Minneapolis Center
06:19PM 44.2881 -91.6450 119° Southeast 439 505 30,000 1,020 Climbing Minneapolis Center
06:20PM 44.2319 -91.4931 117° Southeast 441 507 30,900 1,080 Climbing Minneapolis Center
06:21PM 44.1619 -91.3111 118° Southeast 444 511 32,300 960 Climbing Minneapolis Center
06:22PM 44.1064 -91.1597 117° Southeast 445 512 33,000 840 Climbing Minneapolis Center
06:23PM 44.0492 -91.0106 118° Southeast 443 510 34,100 900 Climbing Minneapolis Center
06:24PM 43.9933 -90.8706 119° Southeast 431 496 34,900 420 Climbing Minneapolis Center
06:25PM 43.9361 -90.7258 119° Southeast 430 495 35,000  Climbing Minneapolis Center
06:27PM 43.8675 -90.5522 119° Southeast 431 496 35,000  Level Chicago Center
06:28PM 43.8000 -90.3833 119° Southeast 422 486 35,000  Level Chicago Center
06:28PM 43.7564 -90.2692 118° Southeast 420 483 35,000  Level Minneapolis Center
06:30PM 43.7108 -90.1053 111° Southeast 425 489 35,000  Level Minneapolis Center
06:31PM 43.6850 -89.9450 103° East 427 491 35,000  Level Minneapolis Center
06:32PM 43.6581 -89.7842 103° East 429 494 35,000  Level Minneapolis Center
06:33PM 43.6286 -89.6258 104° East 427 491 35,000  Level Minneapolis Center
06:34PM 43.5994 -89.4681 104° East 424 488 35,000  Level Minneapolis Center
06:35PM 43.5653 -89.2814 104° East 429 494 35,000  Level Minneapolis Center
06:36PM 43.5350 -89.1222 105° East 430 495 35,000  Level Minneapolis Center
06:37PM 43.5044 -88.9658 105° East 426 490 35,000  Level Minneapolis Center
06:38PM 43.4747 -88.8081 105° East 426 490 35,000  Level Minneapolis Center
06:39PM 43.4439 -88.6514 105° East 426 490 35,000  Level Minneapolis Center
06:40PM 43.4003 -88.4389 106° East 434 499 35,000  Level Chicago Center
06:41PM 43.3736 -88.2892 104° East 431 496 35,000  Level Chicago Center
06:42PM 43.3436 -88.1347 105° East 422 486 35,000  Level Chicago Center
06:43PM 43.3119 -87.9767 105° East 428 493 35,000  Level Chicago Center
06:44PM 43.2767 -87.7956 105° East 423 487 35,000  Level Chicago Center
06:45PM 43.2444 -87.6403 106° East 423 487 35,000  Level Chicago Center
06:46PM 43.2139 -87.4842 105° East 423 487 35,000  Level Chicago Center
06:47PM 43.1789 -87.3181 106° East 422 486 35,000  Level Chicago Center
06:48PM 43.1467 -87.1631 106° East 423 487 35,000  Level Chicago Center
06:49PM 43.1136 -87.0072 106° East 428 493 35,000  Level Chicago Center
06:50PM 43.0819 -86.8542 106° East 421 484 35,000  Level Chicago Center
06:51PM 43.0494 -86.7028 106° East 418 481 35,000  Level Chicago Center
06:52PM 43.0172 -86.5506 106° East 418 481 35,000  Level Chicago Center
06:53PM 42.9847 -86.4025 107° East 413 475 35,000  Level Chicago Center
06:54PM 42.9456 -86.2228 107° East 416 479 35,000  Level Chicago Center
06:55PM 42.9117 -86.0722 107° East 423 487 35,000  Level Chicago Center
06:56PM 42.8792 -85.9197 106° East 430 495 35,000  Level Chicago Center
06:58PM 42.8469 -85.7683 106° East 425 489 35,000  Level Chicago Center
06:59PM 42.8131 -85.6169 107° East 423 487 35,000  Level Chicago Center
07:00PM 42.7664 -85.4364 109° East 426 490 35,000  Level Chicago Center
07:01PM 42.7161 -85.2953 116° Southeast 418 481 35,000  Level Chicago Center
07:02PM 42.6667 -85.1522 115° Southeast 419 482 35,000  Level Chicago Center
07:03PM 42.6161 -85.0108 116° Southeast 418 481 35,000  Level Chicago Center
07:04PM 42.5661 -84.8683 115° Southeast 419 482 35,000  Level Chicago Center
07:05PM 42.5147 -84.7267 116° Southeast 421 484 35,000  Level Chicago Center
07:06PM 42.4644 -84.5839 115° Southeast 422 486 35,000  Level Chicago Center
07:07PM 42.4044 -84.4189 116° Southeast 409 471 35,000  Level Chicago Center
07:08PM 42.3547 -84.2894 117° Southeast 414 476 35,000  Level Cleveland Center
07:09PM 42.3028 -84.1517 117° Southeast 414 476 35,000  Level Cleveland Center
07:10PM 42.2506 -84.0142 117° Southeast 414 476 35,000  Level Cleveland Center
07:11PM 42.2003 -83.8767 116° Southeast 409 471 35,000  Level Cleveland Center
07:12PM 42.1481 -83.7339 116° Southeast 409 471 35,000  Level Cleveland Center
07:13PM 42.1014 -83.6114 117° Southeast 414 476 35,000  Level Cleveland Center
07:14PM 42.0486 -83.4717 117° Southeast 414 476 35,000  Level Cleveland Center
07:15PM 41.9792 -83.3317 124° Southeast 414 476 35,000  Level Cleveland Center
07:16PM 41.9133 -83.2061 125° Southeast 409 471 35,000  Level Cleveland Center
07:17PM 41.8533 -83.0922 125° Southeast 415 478 35,000  Level Cleveland Center
07:18PM 41.7872 -82.9669 125° Southeast 415 478 35,000  Level Cleveland Center
07:19PM 41.7189 -82.8419 126° Southeast 415 478 35,000  Level Cleveland Center
07:20PM 41.6525 -82.7147 125° Southeast 415 478 35,000  Level Cleveland Center
07:21PM 41.5797 -82.5789 126° Southeast 415 478 35,000  Level Cleveland Center
07:22PM 41.5153 -82.4522 124° Southeast 415 478 35,000  Level Cleveland Center
07:23PM 41.4464 -82.3283 127° Southeast 415 478 35,000  Level Cleveland Center
07:24PM 41.3794 -82.2047 126° Southeast 415 478 35,000  Level Cleveland Center
07:25PM 41.3017 -82.0978 134° Southeast 410 472 35,000  Level Cleveland Center
07:26PM 41.2069 -82.0044 143° Southeast 409 471 35,000  Level Cleveland Center
07:27PM 41.1119 -81.9169 145° Southeast 417 480 35,000  Level Cleveland Center
07:28PM 41.0236 -81.8217 141° Southeast 415 478 35,000  Level Cleveland Center
07:29PM 40.9328 -81.7319 143° Southeast 409 471 35,000  Level Cleveland Center
07:30PM 40.8439 -81.6397 142° Southeast 404 465 35,000  Level Cleveland Center
07:31PM 40.7633 -81.5589 143° Southeast 404 465 35,000  Level Cleveland Center
07:32PM 40.6767 -81.4700 142° Southeast 404 465 35,000  Level Cleveland Center
07:33PM 40.5814 -81.3678 141° Southeast 404 465 35,000  Level Cleveland Center
07:34PM 40.4903 -81.2819 144° Southeast 404 465 35,000  Level Cleveland Center
07:35PM 40.3969 -81.1883 143° Southeast 409 471 35,000  Level Cleveland Center
07:36PM 40.3225 -81.0733 130° Southeast 414 476 35,000  Level Cleveland Center
07:37PM 40.2561 -80.9558 126° Southeast 409 471 35,000  Level Cleveland Center
07:38PM 40.1900 -80.8358 126° Southeast 404 465 35,000  Level Cleveland Center
07:39PM 40.1214 -80.7161 127° Southeast 404 465 35,000  Level Cleveland Center
07:40PM 40.0525 -80.5994 128° Southeast 410 472 35,000 -60 Level Cleveland Center
07:41PM 39.9836 -80.4800 127° Southeast 415 478 34,900 -900 Descending Cleveland Center
07:42PM 39.9189 -80.3747 129° Southeast 415 478 33,300 -1,980 Descending Cleveland Center
07:43PM 39.8311 -80.2858 142° Southeast 403 464 31,000 -1,200 Descending Cleveland Center
07:44PM 39.7456 -80.1836 137° Southeast 403 464 31,000  Level Cleveland Center
07:45PM 39.6803 -80.0597 124° Southeast 411 473 31,000  Level Cleveland Center
07:46PM 39.5856 -79.8758 124° Southeast 432 497 31,000  Level Washington Center
07:47PM 39.5192 -79.7481 124° Southeast 432 497 31,000  Level Washington Center
07:48PM 39.4544 -79.6233 124° Southeast 432 497 31,000 -420 Level Washington Center
07:49PM 39.3858 -79.4961 125° Southeast 432 497 30,200 -1,320 Descending Washington Center
07:50PM 39.3444 -79.3517 110° East 432 497 28,400 -1,800 Descending Washington Center
07:51PM 39.3181 -79.1944 102° East 432 497 26,600 -1,800 Descending Washington Center
07:52PM 39.2911 -79.0511 104° East 427 491 24,900 -1,740 Descending Washington Center
07:53PM 39.2658 -78.9050 103° East 421 484 23,200 -1,680 Descending Washington Center
07:54PM 39.2367 -78.7536 104° East 414 476 21,600 -2,040 Descending Washington Center
07:55PM 39.2108 -78.6186 104° East 398 458 19,100 -2,400 Descending Washington Center
07:56PM 39.1872 -78.4864 103° East 387 445 16,900 -2,100 Descending Washington Center
07:57PM 39.1611 -78.3569 105° East 374 430 15,000 -960 Descending Washington Center
07:58PM 39.1306 -78.2300 107° East 374 430 15,000 -540 Level Washington Center
07:59PM 39.0978 -78.1031 108° East 374 430 14,000 -540 Descending Washington Center
08:00PM 39.0669 -77.9817 108° East 364 419 14,000 -900 Level Washington Center
08:01PM 39.0378 -77.8686 108° East 351 404 12,200 -1,860 Descending Washington Center
08:02PM 39.0106 -77.7608 108° East 324 373 10,300 -1,620 Descending Washington Center
08:03PM 38.9853 -77.6611 108° East 303 349 9,100 -1,080 Descending Washington Center
08:04PM 38.9667 -77.5833 107° East 297 342 8,500 -780 Descending Potomac TRACON
08:05PM 38.9500 -77.4833 102° East 262 302 7,800 -960 Descending Potomac TRACON
08:06PM 38.9667 -77.4000 76° East 243 280 6,600 -1,200 Descending Potomac TRACON
08:07PM 38.9667 -77.3167 90° East 239 275 5,400 -1,380 Descending Potomac TRACON
08:08PM 38.9833 -77.2333 76° East 237 273 3,900 -1,500 Descending Potomac TRACON